Home > Products > Valid Products > MTR

000
SAUS44 KLCH 270854
MTRP92
METAR KP92 270853Z AUTO VRB03KT 26/24 A2993 RMK AO1 SLP136 T02560239
58010





000
SAUS44 KLCH 270755
MTRP92
METAR KP92 270753Z AUTO 00000KT 26/24 A2995 RMK AO1 SLP141 T02610244





000
SAUS44 KLCH 270654
MTRP92
METAR KP92 270653Z AUTO VRB03KT 26/24 A2995 RMK AO1 SLP141 T02610244





000
SAUS44 KLCH 270555
MTRP92
METAR KP92 270553Z AUTO 00000KT 26/24 A2996 RMK AO1 SLP146 T02610244
10267 20261 403000250 51001





000
SAUS44 KLCH 270455
MTRP92
METAR KP92 270453Z AUTO 00000KT 26/24 A2996 RMK AO1 SLP145 T02610244





000
SAUS44 KLCH 270354
MTRP92
METAR KP92 270353Z AUTO 00000KT 27/25 A2996 RMK AO1 SLP146 T02670250





000
SAUS44 KLCH 270254
MTRP92
METAR KP92 270253Z AUTO 00000KT 27/25 A2996 RMK AO1 SLP144 T02670250
53009





000
SAUS44 KLCH 270155
MTRP92
METAR KP92 270153Z AUTO 00000KT 27/25 A2995 RMK AO1 SLP141 T02670250





000
SAUS44 KLCH 270055
MTRP92
METAR KP92 270053Z AUTO 00000KT 27/25 A2994 RMK AO1 SLP139 T02670250





000
SAUS44 KLCH 262355
MTRP92
METAR KP92 262353Z AUTO VRB03KT 27/24 A2993 RMK AO1 SLP136 T02670244
10300 20250 58009





000
SAUS44 KLCH 262255
MTRP92
METAR KP92 262253Z AUTO 12003KT 26/24 A2994 RMK AO1 SLP140 T02610239





000
SAUS44 KLCH 262155
MTRP92
METAR KP92 262153Z AUTO 00000KT 26/24 A2995 RMK AO1 SLP141 T02610239





000
SAUS44 KLCH 262055
MTRP92
METAR KP92 262053Z AUTO 13004KT 27/25 A2996 RMK AO1 SLP145 T02720250
58004





000
SAUS44 KLCH 261954
MTRP92
METAR KP92 261953Z AUTO VRB03KT 26/24 A2997 RMK AO1 SLP146 T02560239





000
SAUS44 KLCH 261855
MTRP92
METAR KP92 261853Z AUTO 12003KT 29/26 A2998 RMK AO1 SLP150 T02890261





000
SAUS44 KLCH 261755 COR
MTRP92
METAR KP92 261753Z AUTO VRB03KT 30/25 A2997 RMK AO1 SLP149 T03000250
10300 20261 51002





000
SAUS44 KLCH 261655
MTRP92
METAR KP92 261653Z AUTO VRB04KT 30/24 A2997 RMK AO1 SLP149 T03000244





000
SAUS44 KLCH 261554
MTRP92
METAR KP92 261553Z AUTO VRB04KT 29/25 A2998 RMK AO1 SLP153 T02940250





000
SAUS44 KLCH 261455
MTRP92
METAR KP92 261453Z AUTO VRB05KT 28/25 A2997 RMK AO1 SLP147 T02780250
51010





000
SAUS44 KLCH 261355
MTRP92
METAR KP92 261353Z AUTO VRB04KT 28/25 A2996 RMK AO1 SLP144 T02780250





000
SAUS44 KLCH 261254
MTRP92
METAR KP92 261253Z AUTO VRB03KT 27/24 A2995 RMK AO1 SLP141 T02720244





000
SAUS44 KLCH 261154
MTRP92
METAR KP92 261153Z AUTO 01004KT 26/24 A2994 RMK AO1 SLP137 T02610239
10267 20261 53012





000
SAUS44 KLCH 261054
MTRP92
METAR KP92 261053Z AUTO 00000KT 26/24 A2992 RMK AO1 SLP132 T02610239





000
SAUS44 KLCH 260954
MTRP92
METAR KP92 260953Z AUTO 00000KT 27/24 A2990 RMK AO1 SLP125 T02670239





000
SAUS44 KLCH 260854
MTRP92
METAR KP92 260853Z AUTO VRB04KT 27/24 A2990 RMK AO1 SLP125 T02670239
55006





000
SAUS44 KLCH 260754
MTRP92
METAR KP92 260753Z AUTO 06003KT 27/24 A2990 RMK AO1 SLP124 T02670244





000
SAUS44 KLCH 260655
MTRP92
METAR KP92 260653Z AUTO VRB04KT 26/24 A2990 RMK AO1 SLP126 T02610239





000
SAUS44 KLCH 260555
MTRP92
METAR KP92 260553Z AUTO 00000KT 26/24 A2992 RMK AO1 SLP131 T02560239
10289 20256 403500256 55005





000
SAUS44 KLCH 260455
MTRP92
METAR KP92 260453Z AUTO 00000KT 26/24 A2991 RMK AO1 SLP127 T02610239





000
SAUS44 KLCH 260354
MTRP92
METAR KP92 260353Z AUTO 00000KT 26/24 A2994 RMK AO1 SLP138 T02610239





000
SAUS44 KLCH 260255
MTRP92
METAR KP92 260253Z AUTO 00000KT 26/24 A2993 RMK AO1 SLP136 T02610239
51008





000
SAUS44 KLCH 260154
MTRP92
METAR KP92 260153Z AUTO 02004KT 26/23 A2992 RMK AO1 SLP133 T02560233





000
SAUS44 KLCH 260055
MTRP92
METAR KP92 260053Z AUTO 35006KT 27/22 A2992 RMK AO1 SLP133 T02670222





000
SAUS44 KLCH 252354
MTRP92
METAR KP92 252353Z AUTO VRB04KT 29/26 A2991 RMK AO1 SLP127 T02890256
10344 20289 53013





000
SAUS44 KLCH 252254
MTRP92
METAR KP92 252253Z AUTO VRB03KT 30/25 A2988 RMK AO1 SLP119 T03000250





000
SAUS44 KLCH 252154
MTRP92
METAR KP92 252153Z AUTO 13006KT 29/24 A2988 RMK AO1 SLP116 T02890244





000
SAUS44 KLCH 252054
MTRP92
METAR KP92 252053Z AUTO 13006KT 29/24 A2987 RMK AO1 SLP114 T02940244
58010





000
SAUS44 KLCH 251954
MTRP92
METAR KP92 251953Z AUTO 13005KT 31/26 A2989 RMK AO1 SLP121 T03060256





000
SAUS44 KLCH 251854
MTRP92
METAR KP92 251853Z AUTO 00000KT 33/26 A2990 RMK AO1 SLP124 T03330261





000
SAUS44 KLCH 251755
MTRP92
METAR KP92 251753Z AUTO VRB03KT 34/26 A2990 RMK AO1 SLP124 T03440261
10350 20283 58003





000
SAUS44 KLCH 251655
MTRP92
METAR KP92 251653Z AUTO VRB04KT 34/25 A2991 RMK AO1 SLP126 T03440250





000
SAUS44 KLCH 251555
MTRP92
METAR KP92 251553Z AUTO VRB04KT 34/25 A2992 RMK AO1 SLP130 T03390250





000
SAUS44 KLCH 251454
MTRP92
METAR KP92 251453Z AUTO 35007KT 32/25 A2991 RMK AO1 SLP127 T03220250
51004





000
SAUS44 KLCH 251355
MTRP92
METAR KP92 251353Z AUTO 35005KT 31/25 A2991 RMK AO1 SLP126 T03060250





000
SAUS44 KLCH 251254
MTRP92
METAR KP92 251253Z AUTO 35005KT 29/25 A2991 RMK AO1 SLP127 T02890250





000
SAUS44 KLCH 251154
MTRP92
METAR KP92 251153Z AUTO 35003KT 28/25 A2990 RMK AO1 SLP123 T02830250
10306 20283 53003





000
SAUS44 KLCH 251054
MTRP92
METAR KP92 251053Z AUTO 00000KT 28/26 A2989 RMK AO1 SLP121 T02830256





000
SAUS44 KLCH 250955
MTRP92
METAR KP92 250953Z AUTO 00000KT 29/26 A2989 RMK AO1 SLP120 T02940261





000
SAUS44 KLCH 250855
MTRP92
METAR KP92 250853Z AUTO 36003KT 29/26 A2989 RMK AO1 SLP120 T02940261
55006





000
SAUS44 KLCH 250754
MTRP92
METAR KP92 250753Z AUTO 00000KT 29/26 A2989 RMK AO1 SLP120 T02940261





000
SAUS44 KLCH 250655
MTRP92
METAR KP92 250653Z AUTO 00000KT 30/26 A2990 RMK AO1 SLP123 T03000256





000
SAUS44 KLCH 250555
MTRP92
METAR KP92 250553Z AUTO 00000KT 29/26 A2991 RMK AO1 SLP127 T02890261
10333 20289 403500278 53000





000
SAUS44 KLCH 250454
MTRP92
METAR KP92 250453Z AUTO 00000KT 29/26 A2990 RMK AO1 SLP125 T02940261





000
SAUS44 KLCH 250354
MTRP92
METAR KP92 250353Z AUTO 00000KT 29/26 A2991 RMK AO1 SLP128 T02940256





000
SAUS44 KLCH 250254
MTRP92
METAR KP92 250253Z AUTO 00000KT 29/25 A2991 RMK AO1 SLP126 T02940250
51016





000
SAUS44 KLCH 250155
MTRP92
METAR KP92 250153Z AUTO 00000KT 30/26 A2989 RMK AO1 SLP121 T03000256





000
SAUS44 KLCH 250055
MTRP92
METAR KP92 250053Z AUTO 00000KT 31/24 A2988 RMK AO1 SLP118 T03110244





000
SAUS44 KLCH 242355
MTRP92
METAR KP92 242353Z AUTO 00000KT 33/26 A2986 RMK AO1 SLP110 T03330261
10350 20333 56008





000
SAUS44 KLCH 242254
MTRP92
METAR KP92 242253Z AUTO VRB03KT 33/27 A2986 RMK AO1 SLP111 T03330267





000
SAUS44 KLCH 242155
MTRP92
METAR KP92 242153Z AUTO VRB04KT 34/27 A2987 RMK AO1 SLP115 T03390267





000
SAUS44 KLCH 242055
MTRP92
METAR KP92 242053Z AUTO VRB03KT 34/26 A2988 RMK AO1 SLP119 T03390261
56020





000
SAUS44 KLCH 241954
MTRP92
METAR KP92 241953Z AUTO 29004KT 34/26 A2990 RMK AO1 SLP124 T03390261





000
SAUS44 KLCH 241854
MTRP92
METAR KP92 241853Z AUTO 00000KT 34/25 A2992 RMK AO1 SLP131 T03440250





000
SAUS44 KLCH 241754
MTRP92
METAR KP92 241753Z AUTO VRB04KT 34/25 A2994 RMK AO1 SLP139 T03390250
10344 20278 58009





000
SAUS44 KLCH 241654
MTRP92
METAR KP92 241653Z AUTO VRB04KT 33/26 A2995 RMK AO1 SLP143 T03330261





000
SAUS44 KLCH 241555
MTRP92
METAR KP92 241553Z AUTO 31005KT 33/26 A2997 RMK AO1 SLP147 T03280261





000
SAUS44 KLCH 241455
MTRP92
METAR KP92 241453Z AUTO 34007KT 32/26 A2997 RMK AO1 SLP148 T03170256
53005





000
SAUS44 KLCH 241355
MTRP92
METAR KP92 241353Z AUTO VRB04KT 31/26 A2996 RMK AO1 SLP146 T03110261





000
SAUS44 KLCH 241254
MTRP92
METAR KP92 241253Z AUTO VRB03KT 29/26 A2996 RMK AO1 SLP144 T02940261





000
SAUS44 KLCH 241155
MTRP92
METAR KP92 241153Z AUTO 35004KT 28/25 A2996 RMK AO1 SLP143 70001
T02780250 10311 20278 53015





000
SAUS44 KLCH 241054
MTRP92
METAR KP92 241053Z AUTO 00000KT 28/26 A2993 RMK AO1 SLP134 T02780256





000
SAUS44 KLCH 240955
MTRP92
METAR KP92 240953Z AUTO 00000KT 29/26 A2992 RMK AO1 SLP131 T02890256





    US Dept of Commerce
    National Oceanic and Atmospheric Administration
    National Weather Service
    1325 East West Highway
    Silver Spring, MD 20910
    Page Author: NWS Internet Services Team
Disclaimer
Information Quality
Credits
Glossary
Privacy Policy
Freedom of Information Act (FOIA)
About Us
Career Opportunities